Pays
Station

 

Conditions  météo  pour  Dothan, Dothan Airport  -  Etats-Unis    Etats-Unis

  
9 °C
    
 
 

METAR pour Dothan, Dothan Airport :

KDHN 212253Z 06005KT 10SM CLR 09/M03 A3038 RMK AO2 SLP289 T00941033

 

Voici le bulletin pour Dothan, Dothan Airport - Etats-Unis.
 
Le bulletin a été fait il y a 21 minutes, à 22:53 UTC .
Le vent soufflait à la vitesse de 2.6 mètres par seconde de Est/Nord-est (060°).
 
La température était de 9 °C, avec un point de rosée à -3 °C.
La pression atmosphérique était de 1029 hPa.
L'humidité relative était de 42.6%.
 
Le ciel était clair.
 
La visibilité globale était de 16.1 kilomètres.
 

 
 
 

Pays :   A   B   C   D   E   F   G   H   I   J   K   L   M   N   O   P   Q   R   S   T   U   V   W   Y   Z

 

Partenaires :  Info Météo avec Met'info
Météo Marine avec MeteoMarine.net
Infos Site  |  Infos Légales  |  Crédits  |  Confidentialité
Contactez-nous  |  Ajouter aux favoris
© 2013-2019 METAR - Tous droits réservés